Terminal Aerodrome Forecast
Issued by NWS Cleveland, OH

Home | Current Version | Previous Version | Graphics & Text | Print | Product List | Glossary On
Versions: 1 2 3 4 5 6 7 8 9 10 11 12 13 14 15 16 17
000
FTUS41 KCLE 300013 AAA
TAFCAK
TAF AMD
KCAK 300013Z 3000/3024 02008KT P6SM VCTS SCT040CB OVC150
      TEMPO 3000/3004 VRB12G20KT 3SM SHRA BR OVC040
     FM300400 12003KT 6SM BR SCT035 BKN120
      TEMPO 3006/3009 4SM BR BKN035
     FM300900 14003KT 3SM BR SCT012 BKN035
      TEMPO 3009/3013 1SM BR OVC012
     FM301500 20004KT P6SM SCT035 BKN080
     FM301800 22006KT P6SM VCTS BKN040CB=

USA.gov is the U.S. government's official web portal to all federal, state and local government web resources and services.